Time;durP1;ratioP1;P1;durP2;ratioP2;P2;SDS_P1;SDS_P2;PMS_P1;PMS_P2;Temp;Humidity;BMP_temperature;BMP_pressure;BME280_temperature;BME280_humidity;BME280_pressure;Samples;Min_cycle;Max_cycle;Signal;HPM_P1;HPM_P2
2024/03/17 00:00:06;;;;;;;;;;;;;;;8.68;65.74;94841.13;4194555;28;19924;-70
2024/03/17 00:02:07;;;;;;;;;;;;;;;8.64;65.66;94845.81;4176808;28;19921;-69
2024/03/17 00:04:07;;;;;;;;;;;;;;;8.63;65.76;94845.97;4189028;28;20251;-69
2024/03/17 00:06:09;;;;;;;;;;;;;;;8.63;65.61;94843.38;4192731;28;20389;-71
2024/03/17 00:08:10;;;;;;;;;;;;;;;8.69;65.47;94848.84;4192715;28;19955;-70
2024/03/17 00:10:10;;;;;;;;;;;;;;;8.72;65.37;94835.47;4194650;28;19982;-71
2024/03/17 00:12:11;;;;;;;;;;;;;;;8.74;65.47;94843.19;4192558;28;19998;-68
2024/03/17 00:14:12;;;;;;;;;;;;;;;8.74;65.22;94837.94;4172748;28;20319;-72
2024/03/17 00:16:13;;;;;;;;;;;;;;;8.75;65.19;94845.63;4207969;28;19924;-69
2024/03/17 00:18:14;;;;;;;;;;;;;;;8.74;65.29;94840.56;4196584;28;19928;-68
2024/03/17 00:20:19;;;;;;;;;;;;;;;8.74;65.18;94843.19;4149883;28;20032;-69
2024/03/17 00:22:20;;;;;;;;;;;;;;;8.73;65.58;94839.75;4183940;28;19984;-71
2024/03/17 00:24:21;;;;;;;;;;;;;;;8.69;65.37;94843.59;4197418;28;20359;-70
2024/03/17 00:26:22;;;;;;;;;;;;;;;8.61;64.91;94844.31;4164124;28;19921;-69
2024/03/17 00:28:23;;;;;;;;;;;;;;;8.49;65.30;94842.84;4202520;28;19931;-70
2024/03/17 00:30:23;;;;;;;;;;;;;;;8.42;65.88;94839.16;4193461;28;19924;-71
2024/03/17 00:32:24;;;;;;;;;;;;;;;8.43;66.74;94839.97;4194348;28;19977;-72
2024/03/17 00:34:25;;;;;;;;;;;;;;;8.46;65.95;94837.09;4191301;28;20002;-71
2024/03/17 00:36:26;;;;;;;;;;;;;;;8.49;66.54;94831.56;4190151;28;19920;-70
2024/03/17 00:38:26;;;;;;;;;;;;;;;8.48;66.46;94835.16;4184860;28;19921;-69
2024/03/17 00:40:27;;;;;;;;;;;;;;;8.50;65.95;94830.63;4192388;28;20140;-69
2024/03/17 00:42:28;;;;;;;;;;;;;;;8.52;65.79;94828.69;4193099;28;19927;-71
2024/03/17 00:44:28;;;;;;;;;;;;;;;8.55;65.66;94828.41;4185493;28;19959;-70
2024/03/17 00:46:29;;;;;;;;;;;;;;;8.51;66.19;94835.69;4186346;28;20050;-69
2024/03/17 00:48:31;;;;;;;;;;;;;;;8.28;66.71;94840.41;4168082;28;19973;-68
2024/03/17 00:50:32;;;;;;;;;;;;;;;7.85;67.69;94843.50;4182049;28;19986;-70
2024/03/17 00:52:32;;;;;;;;;;;;;;;7.49;68.69;94853.66;4190050;28;19980;-70
2024/03/17 00:54:33;;;;;;;;;;;;;;;7.33;70.10;94844.59;4177182;28;20015;-69
2024/03/17 00:56:34;;;;;;;;;;;;;;;7.14;70.76;94849.75;4187522;28;20337;-70
2024/03/17 00:58:34;;;;;;;;;;;;;;;7.02;71.07;94837.84;4186149;28;19924;-70
2024/03/17 01:00:35;;;;;;;;;;;;;;;6.83;71.89;94847.22;4184153;28;20280;-70
2024/03/17 01:02:36;;;;;;;;;;;;;;;6.84;71.72;94843.69;4186398;28;19920;-69
2024/03/17 01:04:36;;;;;;;;;;;;;;;6.82;72.32;94839.53;4188412;28;19921;-70
2024/03/17 01:06:40;;;;;;;;;;;;;;;7.04;72.03;94843.72;4182165;28;20459;-70
2024/03/17 01:08:41;;;;;;;;;;;;;;;7.16;71.48;94842.63;4191020;28;19923;-71
2024/03/17 01:10:41;;;;;;;;;;;;;;;7.32;70.58;94848.16;4181355;28;20323;-71
2024/03/17 01:12:42;;;;;;;;;;;;;;;7.46;70.59;94833.88;4178547;28;20457;-71
2024/03/17 01:14:43;;;;;;;;;;;;;;;7.62;69.09;94835.97;4188520;28;20421;-70
2024/03/17 01:16:44;;;;;;;;;;;;;;;7.72;68.62;94839.41;4186103;28;20452;-68
2024/03/17 01:18:45;;;;;;;;;;;;;;;7.80;69.04;94836.91;4162887;28;20317;-69
2024/03/17 01:20:46;;;;;;;;;;;;;;;7.86;68.45;94842.53;4192556;28;19920;-71
2024/03/17 01:22:46;;;;;;;;;;;;;;;7.89;68.18;94839.66;4192501;28;19935;-72
2024/03/17 01:24:47;;;;;;;;;;;;;;;7.74;68.37;94850.53;4189572;28;19926;-71
2024/03/17 01:26:49;;;;;;;;;;;;;;;7.71;68.44;94850.78;4186426;28;20282;-71
2024/03/17 01:28:49;;;;;;;;;;;;;;;7.72;68.73;94852.44;4180949;28;19932;-71
2024/03/17 01:30:50;;;;;;;;;;;;;;;7.67;68.65;94840.78;4190103;28;19920;-72
2024/03/17 01:32:51;;;;;;;;;;;;;;;7.72;68.62;94841.16;4196335;28;20422;-70
2024/03/17 01:34:51;;;;;;;;;;;;;;;7.71;68.22;94844.75;4177902;28;20043;-71
2024/03/17 01:36:52;;;;;;;;;;;;;;;7.72;68.67;94838.56;4192585;28;19924;-68
2024/03/17 01:38:53;;;;;;;;;;;;;;;7.78;68.46;94851.06;4175829;28;19974;-69
2024/03/17 01:40:54;;;;;;;;;;;;;;;7.86;68.06;94845.97;4185252;28;19920;-70
2024/03/17 01:42:54;;;;;;;;;;;;;;;7.94;67.73;94837.47;4175549;28;19927;-70
2024/03/17 01:44:55;;;;;;;;;;;;;;;7.99;67.57;94843.06;4195034;28;20305;-69
2024/03/17 01:46:56;;;;;;;;;;;;;;;8.00;67.53;94840.34;4182311;28;19921;-70
2024/03/17 01:48:57;;;;;;;;;;;;;;;8.04;67.76;94837.44;4104812;28;2035590;-70
2024/03/17 01:50:58;;;;;;;;;;;;;;;8.07;66.99;94837.16;4175492;28;19920;-69
2024/03/17 01:52:59;;;;;;;;;;;;;;;8.03;67.57;94841.03;4173736;28;20390;-71
2024/03/17 01:55:00;;;;;;;;;;;;;;;8.06;67.06;94838.13;4168882;28;19925;-69
2024/03/17 01:57:01;;;;;;;;;;;;;;;8.00;67.20;94837.72;4184700;28;19942;-70
2024/03/17 01:59:01;;;;;;;;;;;;;;;7.92;67.28;94847.22;4181237;28;20013;-68
2024/03/17 02:01:04;;;;;;;;;;;;;;;7.71;68.01;94840.34;4188462;28;20570;-68
2024/03/17 02:03:10;;;;;;;;;;;;;;;7.42;69.01;94837.75;4176191;28;19931;-73
2024/03/17 02:05:11;;;;;;;;;;;;;;;7.40;69.49;94839.69;4179645;28;19943;-71
2024/03/17 02:07:11;;;;;;;;;;;;;;;7.31;69.78;94837.88;4192681;28;19920;-69
2024/03/17 02:09:12;;;;;;;;;;;;;;;7.35;69.62;94841.84;4192538;28;19972;-69
2024/03/17 02:11:24;;;;;;;;;;;;;;;7.44;69.85;94838.41;4188281;28;19935;-70
2024/03/17 02:13:24;;;;;;;;;;;;;;;7.52;69.21;94837.75;4185973;28;19925;-69
2024/03/17 02:15:25;;;;;;;;;;;;;;;7.51;69.56;94836.13;4181975;28;19920;-68
2024/03/17 02:17:27;;;;;;;;;;;;;;;7.36;69.29;94844.31;4184351;28;19920;-70
2024/03/17 02:19:28;;;;;;;;;;;;;;;7.35;69.11;94845.28;4187184;28;19927;-71
2024/03/17 02:21:28;;;;;;;;;;;;;;;7.39;69.24;94844.03;4178348;28;19920;-71
2024/03/17 02:23:30;;;;;;;;;;;;;;;7.46;69.25;94843.50;4192219;28;20260;-70
2024/03/17 02:25:30;;;;;;;;;;;;;;;7.56;69.70;94844.34;4189339;28;20290;-70
2024/03/17 02:27:31;;;;;;;;;;;;;;;7.60;69.14;94835.28;4169822;28;20020;-72
2024/03/17 02:29:32;;;;;;;;;;;;;;;7.64;68.82;94841.88;4192199;28;20693;-71
2024/03/17 02:31:32;;;;;;;;;;;;;;;7.64;68.38;94836.66;4179961;28;19925;-71
2024/03/17 02:33:33;;;;;;;;;;;;;;;7.66;68.31;94841.72;4185552;28;20382;-71
2024/03/17 02:35:34;;;;;;;;;;;;;;;7.71;68.26;94840.34;4178577;28;19921;-70
2024/03/17 02:37:34;;;;;;;;;;;;;;;7.74;68.27;94834.03;4199198;28;20422;-71
2024/03/17 02:39:35;;;;;;;;;;;;;;;7.78;67.68;94828.41;4181892;28;19921;-69
2024/03/17 02:41:36;;;;;;;;;;;;;;;7.79;67.68;94839.69;4187734;28;19921;-70
2024/03/17 02:43:36;;;;;;;;;;;;;;;7.86;67.66;94832.94;4187495;28;19928;-70
2024/03/17 02:45:37;;;;;;;;;;;;;;;7.90;67.33;94833.50;4192072;28;19920;-71
2024/03/17 02:47:38;;;;;;;;;;;;;;;7.92;67.19;94832.38;4186250;28;20370;-68
2024/03/17 02:49:43;;;;;;;;;;;;;;;8.00;67.87;94832.50;4182632;28;19920;-68
2024/03/17 02:51:44;;;;;;;;;;;;;;;8.02;67.48;94829.75;4190172;28;19943;-70
2024/03/17 02:53:45;;;;;;;;;;;;;;;8.05;67.04;94833.88;4185836;28;19963;-69
2024/03/17 02:55:45;;;;;;;;;;;;;;;8.05;66.57;94834.69;4176304;28;20415;-69
2024/03/17 02:57:46;;;;;;;;;;;;;;;8.00;66.97;94835.13;4188847;28;19920;-70
2024/03/17 02:59:46;;;;;;;;;;;;;;;8.01;66.55;94838.53;4176852;28;19987;-69
2024/03/17 03:01:47;;;;;;;;;;;;;;;8.03;66.65;94830.59;4189116;28;19927;-71
2024/03/17 03:03:48;;;;;;;;;;;;;;;8.01;67.26;94833.31;4188420;28;19978;-69
2024/03/17 03:05:49;;;;;;;;;;;;;;;7.97;66.53;94821.53;4188635;28;20290;-68
2024/03/17 03:07:49;;;;;;;;;;;;;;;7.98;67.08;94823.19;4190366;28;20303;-71
2024/03/17 03:09:50;;;;;;;;;;;;;;;7.97;66.64;94826.75;4190608;28;19939;-71
2024/03/17 03:11:52;;;;;;;;;;;;;;;7.99;67.04;94824.81;4178414;28;19921;-70
2024/03/17 03:13:54;;;;;;;;;;;;;;;7.97;66.50;94824.13;4191369;28;19982;-69
2024/03/17 03:15:55;;;;;;;;;;;;;;;7.97;67.19;94826.75;4199275;28;19920;-70
2024/03/17 03:17:55;;;;;;;;;;;;;;;7.93;66.55;94820.16;4178415;28;19920;-69
2024/03/17 03:19:56;;;;;;;;;;;;;;;7.94;66.85;94824.41;4192007;28;20326;-71
2024/03/17 03:21:56;;;;;;;;;;;;;;;7.88;66.50;94824.97;4177644;28;19920;-68
2024/03/17 03:23:57;;;;;;;;;;;;;;;7.83;67.21;94820.19;4187532;28;20347;-69
2024/03/17 03:25:58;;;;;;;;;;;;;;;7.85;67.43;94823.47;4187966;28;20013;-70
2024/03/17 03:27:59;;;;;;;;;;;;;;;7.79;67.12;94818.81;4188617;28;19928;-69
2024/03/17 03:29:59;;;;;;;;;;;;;;;7.82;67.13;94817.69;4193653;28;20351;-70
2024/03/17 03:32:00;;;;;;;;;;;;;;;7.84;67.07;94821.00;4189226;28;20083;-70
2024/03/17 03:34:01;;;;;;;;;;;;;;;7.86;67.07;94826.91;4186600;28;19977;-69
2024/03/17 03:36:07;;;;;;;;;;;;;;;7.82;67.54;94828.13;4181674;28;20385;-69
2024/03/17 03:38:08;;;;;;;;;;;;;;;7.78;67.65;94833.63;4195861;28;20468;-70
2024/03/17 03:40:16;;;;;;;;;;;;;;;7.71;67.30;94826.50;4178310;28;19925;-68
2024/03/17 03:42:17;;;;;;;;;;;;;;;7.63;67.02;94829.78;4189467;28;20382;-69
2024/03/17 03:44:18;;;;;;;;;;;;;;;7.56;67.34;94834.72;4190745;28;19925;-70
2024/03/17 03:46:19;;;;;;;;;;;;;;;7.50;67.92;94830.06;4185092;28;19970;-69
2024/03/17 03:48:20;;;;;;;;;;;;;;;7.48;68.32;94834.56;4195680;28;19923;-71
2024/03/17 03:50:21;;;;;;;;;;;;;;;7.54;68.30;94841.03;4183794;28;20406;-70
2024/03/17 03:52:21;;;;;;;;;;;;;;;7.54;67.77;94838.44;4183835;28;19982;-71
2024/03/17 03:54:22;;;;;;;;;;;;;;;7.56;67.45;94837.34;4178534;28;19974;-70
2024/03/17 03:56:23;;;;;;;;;;;;;;;7.61;67.48;94841.31;4182597;28;19921;-70
2024/03/17 03:58:24;;;;;;;;;;;;;;;7.62;67.86;94849.00;4181108;28;19956;-70
2024/03/17 04:00:29;;;;;;;;;;;;;;;7.63;67.42;94848.03;4191006;28;19920;-71
2024/03/17 04:02:31;;;;;;;;;;;;;;;7.68;67.15;94852.84;4189836;28;19920;-69
2024/03/17 04:04:32;;;;;;;;;;;;;;;7.71;67.28;94849.97;4177880;28;20383;-72
2024/03/17 04:06:32;;;;;;;;;;;;;;;7.73;67.10;94853.25;4180725;28;19925;-71
2024/03/17 04:08:33;;;;;;;;;;;;;;;7.74;67.48;94860.94;4192539;28;19971;-70
2024/03/17 04:10:35;;;;;;;;;;;;;;;7.67;66.96;94862.44;4188922;28;19920;-71
2024/03/17 04:12:35;;;;;;;;;;;;;;;7.67;67.52;94857.22;4198581;28;19920;-70
2024/03/17 04:14:36;;;;;;;;;;;;;;;7.69;67.31;94865.75;4184768;28;19981;-70
2024/03/17 04:16:37;;;;;;;;;;;;;;;7.72;67.24;94862.88;4175553;28;19978;-70
2024/03/17 04:18:38;;;;;;;;;;;;;;;7.73;67.34;94864.50;4189494;28;19920;-71
2024/03/17 04:20:40;;;;;;;;;;;;;;;7.72;67.13;94862.88;4170407;28;19920;-71
2024/03/17 04:22:42;;;;;;;;;;;;;;;7.71;67.60;94866.44;4175303;28;19978;-71
2024/03/17 04:24:46;;;;;;;;;;;;;;;7.67;67.39;94870.28;4187941;28;19921;-71
2024/03/17 04:26:47;;;;;;;;;;;;;;;7.63;67.43;94871.50;4185167;28;20359;-71
2024/03/17 04:28:49;;;;;;;;;;;;;;;7.66;67.78;94873.00;4180562;28;19921;-70
2024/03/17 04:30:49;;;;;;;;;;;;;;;7.71;67.23;94874.25;4178073;28;19988;-70
2024/03/17 04:32:50;;;;;;;;;;;;;;;7.78;67.53;94871.91;4191599;28;20102;-69
2024/03/17 04:34:51;;;;;;;;;;;;;;;7.79;67.22;94877.00;4190504;28;19924;-69
2024/03/17 04:36:51;;;;;;;;;;;;;;;7.80;67.21;94878.63;4189972;28;20040;-70
2024/03/17 04:38:54;;;;;;;;;;;;;;;7.79;66.72;94876.19;4187764;28;19920;-70
2024/03/17 04:41:04;;;;;;;;;;;;;;;7.78;67.07;94883.16;4183083;28;20464;-68
2024/03/17 04:43:04;;;;;;;;;;;;;;;7.74;66.86;94881.81;4200719;28;20251;-71
2024/03/17 04:45:06;;;;;;;;;;;;;;;7.76;66.76;94884.25;4191587;28;19924;-71
2024/03/17 04:47:07;;;;;;;;;;;;;;;7.76;66.77;94892.09;4175772;28;19925;-69
2024/03/17 04:49:08;;;;;;;;;;;;;;;7.79;67.29;94882.22;4177117;28;19968;-69
2024/03/17 04:51:14;;;;;;;;;;;;;;;7.84;67.25;94901.84;4207742;28;19924;-68
2024/03/17 04:53:15;;;;;;;;;;;;;;;7.87;66.45;94898.94;4185192;28;20046;-69
2024/03/17 04:55:19;;;;;;;;;;;;;;;7.90;66.33;94896.91;4189629;28;19958;-69
2024/03/17 04:57:20;;;;;;;;;;;;;;;7.92;66.39;94897.59;4192394;28;20271;-69
2024/03/17 04:59:21;;;;;;;;;;;;;;;7.99;66.73;94908.28;4173639;28;19966;-70
2024/03/17 05:01:21;;;;;;;;;;;;;;;8.02;66.85;94904.59;4182431;28;20256;-70
2024/03/17 05:03:22;;;;;;;;;;;;;;;8.02;66.32;94901.97;4191479;28;19924;-72
2024/03/17 05:05:23;;;;;;;;;;;;;;;8.02;66.84;94904.59;4191460;28;19958;-70
2024/03/17 05:07:24;;;;;;;;;;;;;;;8.02;66.48;94908.00;4183604;28;19921;-70
2024/03/17 05:09:25;;;;;;;;;;;;;;;7.99;65.82;94911.72;4189139;28;19921;-71
2024/03/17 05:11:26;;;;;;;;;;;;;;;7.88;66.34;94911.06;4177985;28;20283;-71
2024/03/17 05:13:27;;;;;;;;;;;;;;;7.83;66.26;94923.66;4190320;28;20356;-72
2024/03/17 05:15:28;;;;;;;;;;;;;;;7.80;66.65;94924.75;4182195;28;19982;-71
2024/03/17 05:17:29;;;;;;;;;;;;;;;7.70;66.33;94927.38;4190667;28;20352;-71
2024/03/17 05:19:30;;;;;;;;;;;;;;;7.75;67.22;94933.00;4179271;28;19920;-72
2024/03/17 05:21:30;;;;;;;;;;;;;;;7.84;67.04;94928.75;4197099;28;19966;-72
2024/03/17 05:23:31;;;;;;;;;;;;;;;7.95;67.17;94923.38;4182889;28;20441;-70
2024/03/17 05:25:36;;;;;;;;;;;;;;;8.06;66.36;94932.88;4186620;28;19924;-73
2024/03/17 05:27:37;;;;;;;;;;;;;;;8.16;66.81;94925.88;4186304;28;19939;-72
2024/03/17 05:29:37;;;;;;;;;;;;;;;8.27;66.30;94929.28;4172790;28;20387;-72
2024/03/17 05:31:42;;;;;;;;;;;;;;;8.29;65.83;94936.00;4186765;28;19939;-72
2024/03/17 05:33:44;;;;;;;;;;;;;;;8.34;65.63;94941.63;4199279;28;19920;-70
2024/03/17 05:35:52;;;;;;;;;;;;;;;8.45;65.42;94932.84;4174011;28;19972;-71
2024/03/17 05:37:53;;;;;;;;;;;;;;;8.57;65.26;94933.53;4191836;28;19931;-69
2024/03/17 05:39:54;;;;;;;;;;;;;;;8.66;65.20;94932.69;4155284;28;19936;-70
2024/03/17 05:41:54;;;;;;;;;;;;;;;8.71;64.71;94929.63;4190497;28;19970;-69
2024/03/17 05:43:58;;;;;;;;;;;;;;;8.72;64.87;94931.28;4201333;28;19931;-71
2024/03/17 05:45:59;;;;;;;;;;;;;;;8.74;64.17;94924.97;4197799;28;19924;-71
2024/03/17 05:48:05;;;;;;;;;;;;;;;8.79;64.93;94932.38;4206071;28;19931;-71
2024/03/17 05:50:05;;;;;;;;;;;;;;;8.80;64.80;94931.41;4179095;28;19932;-70
2024/03/17 05:52:08;;;;;;;;;;;;;;;8.82;64.09;94922.47;4181535;28;20114;-72
2024/03/17 05:54:09;;;;;;;;;;;;;;;8.90;64.55;94924.34;4192533;28;20019;-72
2024/03/17 05:56:11;;;;;;;;;;;;;;;8.95;63.92;94916.91;4186977;28;19966;-69
2024/03/17 05:58:11;;;;;;;;;;;;;;;9.01;64.04;94921.56;4189231;28;20365;-71
2024/03/17 06:00:15;;;;;;;;;;;;;;;9.12;64.16;94930.19;4184517;28;19925;-72
2024/03/17 06:02:16;;;;;;;;;;;;;;;9.15;64.08;94922.06;4183310;28;19921;-71
2024/03/17 06:04:17;;;;;;;;;;;;;;;9.21;63.86;94926.72;4197580;28;19986;-70
2024/03/17 06:06:18;;;;;;;;;;;;;;;9.25;62.64;94925.47;4187564;28;19920;-72
2024/03/17 06:08:18;;;;;;;;;;;;;;;9.30;62.75;94923.22;4184270;28;19921;-73
2024/03/17 06:10:24;;;;;;;;;;;;;;;9.11;62.93;94931.16;4180482;28;20235;-73
2024/03/17 06:12:24;;;;;;;;;;;;;;;9.08;62.67;94931.44;4183299;28;19928;-71
2024/03/17 06:14:25;;;;;;;;;;;;;;;8.83;63.40;94936.34;4189869;28;19929;-71
2024/03/17 06:16:25;;;;;;;;;;;;;;;8.57;64.13;94942.19;4182583;28;19921;-70
2024/03/17 06:18:27;;;;;;;;;;;;;;;8.14;65.34;94950.44;4193508;28;20317;-71
2024/03/17 06:20:28;;;;;;;;;;;;;;;8.28;65.06;94936.16;4189415;28;19928;-71
2024/03/17 06:22:28;;;;;;;;;;;;;;;8.54;65.75;94949.47;4171823;28;19920;-72
2024/03/17 06:24:29;;;;;;;;;;;;;;;8.52;64.45;94931.34;4179118;28;20005;-71
2024/03/17 06:26:33;;;;;;;;;;;;;;;8.53;64.60;94942.59;4187762;28;19920;-72
2024/03/17 06:28:33;;;;;;;;;;;;;;;8.71;64.42;94953.13;4184302;28;20406;-71
2024/03/17 06:30:35;;;;;;;;;;;;;;;8.49;64.70;94947.28;4187073;28;19920;-70
2024/03/17 06:32:36;;;;;;;;;;;;;;;8.36;64.26;94951.94;4190636;28;19997;-71
2024/03/17 06:34:37;;;;;;;;;;;;;;;8.48;64.58;94950.88;4186563;28;20390;-72
2024/03/17 06:36:38;;;;;;;;;;;;;;;8.47;64.51;94956.22;4186297;28;19921;-70
2024/03/17 06:38:39;;;;;;;;;;;;;;;8.36;64.99;94957.16;4188075;28;20014;-70
2024/03/17 06:40:39;;;;;;;;;;;;;;;8.46;65.13;94955.41;4193708;28;20109;-70
2024/03/17 06:42:40;;;;;;;;;;;;;;;8.49;64.51;94960.34;4185634;28;19995;-72
2024/03/17 06:44:41;;;;;;;;;;;;;;;8.52;64.78;94960.06;4170709;28;19943;-70
2024/03/17 06:46:41;;;;;;;;;;;;;;;8.73;64.55;94957.28;4196096;28;19963;-71
2024/03/17 06:48:42;;;;;;;;;;;;;;;8.98;64.14;94963.66;4191774;28;19970;-71
2024/03/17 06:50:44;;;;;;;;;;;;;;;9.25;62.99;94959.44;4184085;28;19924;-71
2024/03/17 06:52:44;;;;;;;;;;;;;;;9.45;62.08;94962.78;4184903;28;20002;-71
2024/03/17 06:54:49;;;;;;;;;;;;;;;9.61;61.74;94954.28;4188452;28;19920;-70
2024/03/17 06:56:51;;;;;;;;;;;;;;;9.76;61.71;94952.81;4183223;28;19932;-72
2024/03/17 06:58:52;;;;;;;;;;;;;;;9.94;61.09;94954.66;4183243;28;19920;-73
2024/03/17 07:00:56;;;;;;;;;;;;;;;10.14;60.77;94952.69;4179382;28;19968;-71
2024/03/17 07:02:57;;;;;;;;;;;;;;;10.23;60.06;94955.22;4152165;28;19921;-72
2024/03/17 07:04:58;;;;;;;;;;;;;;;10.22;59.95;94961.44;4191497;28;20260;-71
2024/03/17 07:06:59;;;;;;;;;;;;;;;10.12;59.69;94965.13;4187801;28;19924;-71
2024/03/17 07:09:00;;;;;;;;;;;;;;;9.65;60.77;94960.88;4181043;28;20255;-72
2024/03/17 07:11:04;;;;;;;;;;;;;;;9.31;61.57;94963.25;4192072;28;19920;-72
2024/03/17 07:13:05;;;;;;;;;;;;;;;9.30;62.28;94959.00;4190615;28;20141;-71
2024/03/17 07:15:06;;;;;;;;;;;;;;;9.30;62.32;94953.78;4186129;28;19982;-71
2024/03/17 07:17:07;;;;;;;;;;;;;;;9.31;62.01;94952.78;4174978;28;20396;-71
2024/03/17 07:19:07;;;;;;;;;;;;;;;9.31;61.75;94964.06;4186100;28;20338;-70
2024/03/17 07:21:09;;;;;;;;;;;;;;;9.45;62.00;94961.97;4189065;28;19981;-71
2024/03/17 07:23:10;;;;;;;;;;;;;;;9.76;61.29;94957.22;4189157;28;20524;-71
2024/03/17 07:25:12;;;;;;;;;;;;;;;10.03;60.87;94958.97;4175077;28;19920;-72
2024/03/17 07:27:13;;;;;;;;;;;;;;;10.31;60.01;94958.94;4189149;28;19975;-71
2024/03/17 07:29:14;;;;;;;;;;;;;;;10.49;59.59;94958.91;4182801;28;19950;-72
2024/03/17 07:31:14;;;;;;;;;;;;;;;10.42;58.85;94956.06;4191318;28;19924;-73
2024/03/17 07:33:15;;;;;;;;;;;;;;;10.10;59.14;94954.78;4191640;28;19920;-71
2024/03/17 07:35:16;;;;;;;;;;;;;;;10.02;59.98;94959.94;4188737;28;19929;-71
2024/03/17 07:37:17;;;;;;;;;;;;;;;9.78;60.63;94966.56;4167555;28;20430;-71
2024/03/17 07:39:18;;;;;;;;;;;;;;;9.42;61.48;94966.50;4195194;28;19921;-67
2024/03/17 07:41:24;;;;;;;;;;;;;;;9.39;62.75;94964.19;4187658;28;19920;-72
2024/03/17 07:43:25;;;;;;;;;;;;;;;9.31;62.17;94965.88;4187062;28;20345;-69
2024/03/17 07:45:25;;;;;;;;;;;;;;;9.18;63.18;94969.66;4187308;28;19920;-71
2024/03/17 07:47:28;;;;;;;;;;;;;;;9.01;63.62;94973.84;4179241;28;20257;-71
2024/03/17 07:49:29;;;;;;;;;;;;;;;8.83;63.40;94972.91;4181039;28;19954;-70
2024/03/17 07:51:30;;;;;;;;;;;;;;;8.91;64.05;94965.19;4175718;28;19921;-70
2024/03/17 07:53:31;;;;;;;;;;;;;;;9.04;63.41;94972.72;4188705;28;19939;-71
2024/03/17 07:55:32;;;;;;;;;;;;;;;9.04;63.25;94974.53;4191472;28;19966;-70
2024/03/17 07:57:32;;;;;;;;;;;;;;;9.02;63.49;94970.25;4191521;28;19932;-71
2024/03/17 07:59:33;;;;;;;;;;;;;;;9.10;63.47;94971.31;4191288;28;19924;-69
2024/03/17 08:01:34;;;;;;;;;;;;;;;9.13;63.02;94971.03;4194490;28;19927;-71
2024/03/17 08:03:35;;;;;;;;;;;;;;;9.17;62.34;94967.19;4195538;28;19954;-71
2024/03/17 08:05:35;;;;;;;;;;;;;;;9.19;62.66;94965.25;4178296;28;20008;-72
2024/03/17 08:07:36;;;;;;;;;;;;;;;9.00;63.44;94966.13;4191472;28;19927;-71
2024/03/17 08:09:37;;;;;;;;;;;;;;;9.14;62.89;94960.44;4191677;28;19920;-71
2024/03/17 08:11:38;;;;;;;;;;;;;;;9.16;63.27;94968.13;4185003;28;19965;-71
2024/03/17 08:13:39;;;;;;;;;;;;;;;9.32;63.94;94970.97;4180116;28;19921;-70
2024/03/17 08:15:40;;;;;;;;;;;;;;;9.40;62.93;94965.84;4183445;28;20039;-71
2024/03/17 08:17:40;;;;;;;;;;;;;;;9.50;62.55;94960.53;4188047;28;19961;-70
2024/03/17 08:19:41;;;;;;;;;;;;;;;9.29;62.53;94966.03;4187683;28;19939;-71
2024/03/17 08:21:42;;;;;;;;;;;;;;;9.30;63.08;94962.44;4182231;28;19921;-71
2024/03/17 08:23:42;;;;;;;;;;;;;;;9.46;62.53;94958.38;4183495;28;19931;-72
2024/03/17 08:25:46;;;;;;;;;;;;;;;9.53;62.02;94957.66;4185373;28;20399;-72
2024/03/17 08:27:47;;;;;;;;;;;;;;;9.66;61.82;94962.53;4169619;28;19921;-72
2024/03/17 08:29:47;;;;;;;;;;;;;;;9.84;61.08;94959.94;4178470;28;19936;-72
2024/03/17 08:31:49;;;;;;;;;;;;;;;9.98;60.84;94956.81;4187799;28;19928;-71
2024/03/17 08:33:50;;;;;;;;;;;;;;;10.29;60.47;94951.22;4186824;28;20287;-72
2024/03/17 08:36:00;;;;;;;;;;;;;;;10.60;59.73;94956.88;4193435;28;19928;-71
2024/03/17 08:38:01;;;;;;;;;;;;;;;10.81;58.70;94960.94;4184936;28;20251;-70
2024/03/17 08:40:02;;;;;;;;;;;;;;;10.93;57.84;94953.66;4175726;28;19920;-69
2024/03/17 08:42:02;;;;;;;;;;;;;;;11.09;57.84;94950.28;4186197;28;19925;-71
2024/03/17 08:44:04;;;;;;;;;;;;;;;11.20;57.48;94948.19;4189828;28;19983;-71
2024/03/17 08:46:06;;;;;;;;;;;;;;;10.95;57.71;94944.66;4182851;28;19955;-71
2024/03/17 08:48:06;;;;;;;;;;;;;;;10.69;58.25;94949.06;4177287;28;19925;-71
2024/03/17 08:50:08;;;;;;;;;;;;;;;10.89;58.17;94937.41;4189125;28;20228;-68
2024/03/17 08:52:08;;;;;;;;;;;;;;;11.16;57.81;94936.38;4191110;28;20385;-70
2024/03/17 08:54:09;;;;;;;;;;;;;;;11.45;57.09;94936.03;4194907;28;19920;-71
2024/03/17 08:56:10;;;;;;;;;;;;;;;11.58;56.71;94927.69;4187042;28;19993;-71
2024/03/17 08:58:11;;;;;;;;;;;;;;;11.81;56.42;94933.19;4187114;28;20390;-72
2024/03/17 09:00:12;;;;;;;;;;;;;;;12.02;55.80;94929.28;4193759;28;19975;-70
2024/03/17 09:02:14;;;;;;;;;;;;;;;12.24;54.81;94928.69;4193447;28;19982;-72
2024/03/17 09:04:15;;;;;;;;;;;;;;;12.46;54.78;94919.31;4189094;28;19921;-70
2024/03/17 09:06:16;;;;;;;;;;;;;;;12.58;54.37;94925.03;4184757;28;19920;-72
2024/03/17 09:08:20;;;;;;;;;;;;;;;12.73;53.51;94927.81;4186407;28;20101;-72
2024/03/17 09:10:20;;;;;;;;;;;;;;;12.97;53.25;94923.50;4192041;28;19920;-73
2024/03/17 09:12:21;;;;;;;;;;;;;;;12.99;52.78;94919.75;4193441;28;19920;-69
2024/03/17 09:14:22;;;;;;;;;;;;;;;12.55;54.02;94916.69;4176687;28;19927;-71
2024/03/17 09:16:24;;;;;;;;;;;;;;;12.58;53.87;94914.53;4185996;28;20414;-68
2024/03/17 09:18:24;;;;;;;;;;;;;;;12.65;53.27;94912.09;4192764;28;19920;-70
2024/03/17 09:20:25;;;;;;;;;;;;;;;12.49;53.20;94915.53;4187208;28;20494;-70
2024/03/17 09:22:25;;;;;;;;;;;;;;;12.26;54.39;94915.34;4187900;28;20007;-71
2024/03/17 09:24:27;;;;;;;;;;;;;;;12.54;53.74;94913.25;4183738;28;20363;-70
2024/03/17 09:26:28;;;;;;;;;;;;;;;12.53;53.37;94898.44;4211668;28;20025;-70
2024/03/17 09:28:29;;;;;;;;;;;;;;;12.36;52.70;94904.69;4169241;28;20012;-72
2024/03/17 09:30:30;;;;;;;;;;;;;;;12.67;52.33;94895.16;4193007;28;19931;-73
2024/03/17 09:32:30;;;;;;;;;;;;;;;11.99;52.92;94903.38;4190558;28;19924;-72
2024/03/17 09:34:31;;;;;;;;;;;;;;;11.92;53.59;94903.22;4183109;28;20282;-71
2024/03/17 09:36:32;;;;;;;;;;;;;;;12.40;53.07;94892.88;4184794;28;19920;-70
2024/03/17 09:38:33;;;;;;;;;;;;;;;12.27;52.72;94888.94;4186832;28;20427;-71
2024/03/17 09:40:33;;;;;;;;;;;;;;;12.08;51.60;94889.25;4184451;28;19924;-71
2024/03/17 09:42:34;;;;;;;;;;;;;;;12.31;50.35;94891.25;4208712;28;19920;-71
2024/03/17 09:44:35;;;;;;;;;;;;;;;12.64;50.34;94889.41;4192868;28;20295;-70
2024/03/17 09:46:36;;;;;;;;;;;;;;;12.97;50.35;94884.06;4188462;28;19929;-72
2024/03/17 09:48:37;;;;;;;;;;;;;;;13.23;48.69;94884.63;4180578;28;20488;-73
2024/03/17 09:50:38;;;;;;;;;;;;;;;13.18;48.29;94886.94;4188644;28;19924;-69
2024/03/17 09:52:39;;;;;;;;;;;;;;;13.24;48.74;94875.75;4173540;28;19978;-69
2024/03/17 09:54:39;;;;;;;;;;;;;;;13.47;47.87;94881.09;4167315;28;19931;-72
2024/03/17 09:56:40;;;;;;;;;;;;;;;13.00;46.90;94889.81;4185210;28;19928;-72
2024/03/17 09:58:41;;;;;;;;;;;;;;;12.76;47.27;94888.06;4189582;28;20114;-72
2024/03/17 10:00:41;;;;;;;;;;;;;;;12.44;47.65;94888.94;4181779;28;19927;-73
2024/03/17 10:02:43;;;;;;;;;;;;;;;12.53;47.06;94887.94;4199488;28;20394;-70
2024/03/17 10:04:44;;;;;;;;;;;;;;;12.77;48.04;94883.63;4198834;28;19943;-71
2024/03/17 10:06:46;;;;;;;;;;;;;;;12.98;46.97;94880.44;4196888;28;19920;-72
2024/03/17 10:08:47;;;;;;;;;;;;;;;13.11;46.77;94886.00;4191348;28;20030;-74
2024/03/17 10:10:52;;;;;;;;;;;;;;;13.33;45.61;94879.19;4192791;28;20065;-75
2024/03/17 10:12:53;;;;;;;;;;;;;;;13.20;44.88;94881.50;4185812;28;20356;-74
2024/03/17 10:15:00;;;;;;;;;;;;;;;13.04;44.29;94890.28;4185915;28;19969;-71
2024/03/17 10:17:00;;;;;;;;;;;;;;;13.01;44.73;94890.63;4173710;28;19943;-72
2024/03/17 10:19:10;;;;;;;;;;;;;;;12.90;45.12;94887.34;4192300;28;20069;-72
2024/03/17 10:21:21;;;;;;;;;;;;;;;12.34;45.92;94894.34;4165885;28;19929;-73
2024/03/17 10:23:22;;;;;;;;;;;;;;;12.47;47.57;94894.66;4181094;28;19920;-73
2024/03/17 10:25:23;;;;;;;;;;;;;;;12.79;46.87;94897.41;4166305;28;20015;-73
2024/03/17 10:27:24;;;;;;;;;;;;;;;12.95;46.49;94883.41;4189704;28;19986;-71
2024/03/17 10:29:30;;;;;;;;;;;;;;;13.15;45.24;94886.47;4176490;28;20263;-71
2024/03/17 10:31:30;;;;;;;;;;;;;;;13.32;44.08;94888.09;4187434;28;19920;-74
2024/03/17 10:33:31;;;;;;;;;;;;;;;13.47;43.40;94888.19;4188724;28;19940;-76
2024/03/17 10:35:32;;;;;;;;;;;;;;;13.10;41.98;94887.81;4174456;28;20261;-74
2024/03/17 10:37:33;;;;;;;;;;;;;;;12.69;42.51;94887.91;4196913;28;20380;-71